Latest Weather Observations for Noonamah

IDD60801

Issued at 7:31 am CST Thursday 30 July 2015 (issued every 30 minutes, with the page automatically refreshed every 10 minutes)

About weather observations | Map of weather stations | Latest weather observations for NT | Other Formats
Station Details ID: 014314 Name: NOONAMAH AIRSTRIP Lat: -12.61 Lon: 131.05 Height: 17.5 m
Data from the previous 72 hours. | See also: Recent months for locations in Northern Territory
Date/Time
CST
Temp
°C
App
Temp
°C
Dew
Point
Rel
Hum
%
Delta-T
°C
Wind Press
QNH
hPa
Press
MSL
hPa
Rain
since 9 am
mm
Dir
 
Spd
km/h
Gust
km/h
Spd
kts
Gust
kts
30/07:30am 16.8 17.2 13.7 82 1.8 SE 4 4 2 2 1016.2 1016.1 0.0
30/07:00am 16.3 17.4 13.4 83 1.6 CALM 0 4 0 2 1016.0 1015.9 0.0
30/06:30am 16.3 17.3 13.2 82 1.7 CALM 0 0 0 0 1015.8 1015.7 0.0
30/06:00am 16.5 17.6 13.4 82 1.7 CALM 0 0 0 0 1015.5 1015.4 0.0
30/05:30am 16.8 17.9 13.5 81 1.9 CALM 0 0 0 0 1015.3 1015.2 0.0
30/05:00am 16.9 18.0 13.6 81 1.9 CALM 0 0 0 0 1015.3 1015.2 0.0
30/04:30am 17.2 18.3 13.5 79 2.1 CALM 0 0 0 0 1015.3 1015.2 0.0
30/04:00am 17.2 18.4 13.7 80 2.0 CALM 0 2 0 1 1015.4 1015.3 0.0
30/03:30am 17.8 18.4 14.3 80 2.0 NE 4 4 2 2 1015.6 1015.5 0.0
30/03:00am 17.1 18.2 14.6 85 1.4 N 2 6 1 3 1015.8 1015.7 0.0
30/02:30am 17.6 19.1 14.7 83 1.7 CALM 0 0 0 0 1015.8 1015.7 0.0
30/02:00am 18.0 19.4 14.5 80 2.0 CALM 0 0 0 0 1016.0 1015.9 0.0
30/01:30am 18.6 20.2 14.9 79 2.2 CALM 0 0 0 0 1016.2 1016.1 0.0
30/01:00am 18.9 20.6 15.2 79 2.2 CALM 0 0 0 0 1016.3 1016.2 0.0
30/12:30am 19.3 21.1 15.4 78 2.3 CALM 0 0 0 0 1016.3 1016.2 0.0
30/12:00am 19.8 21.6 15.4 76 2.6 CALM 0 0 0 0 1016.2 1016.1 0.0
 
Date/Time
CST
Temp
°C
App
Temp
°C
Dew
Point
Rel
Hum
%
Delta-T
°C
Wind Press
QNH
hPa
Press
MSL
hPa
Rain
since 9 am
mm
Dir
 
Spd
km/h
Gust
km/h
Spd
kts
Gust
kts
29/11:30pm 20.3 22.3 15.9 76 2.6 CALM 0 0 0 0 1016.2 1016.1 0.0
29/11:00pm 21.0 22.9 16.6 76 2.7 WSW 2 6 1 3 1016.2 1016.1 0.0
29/10:30pm 21.7 23.8 16.2 71 3.3 CALM 0 4 0 2 1016.3 1016.2 0.0
29/10:00pm 22.1 23.7 17.0 73 3.1 W 4 7 2 4 1016.2 1016.1 0.0
29/09:30pm 22.3 24.3 16.1 68 3.7 CALM 0 0 0 0 1016.1 1016.0 0.0
29/09:00pm 23.6 25.7 17.1 67 4.0 NNW 2 2 1 1 1015.8 1015.7 0.0
29/08:30pm 24.6 26.5 17.6 65 4.4 W 4 6 2 3 1015.6 1015.5 0.0
29/08:00pm 25.3 25.9 15.3 54 6.0 WNW 6 9 3 5 1015.1 1015.0 0.0
29/07:30pm 26.9 26.4 10.6 36 9.2 SSE 4 6 2 3 1014.6 1014.5 0.0
29/07:00pm 28.7 28.1 10.4 32 10.4 SE 4 6 2 3 1014.2 1014.1 0.0
29/06:30pm 30.6 29.5 10.0 28 11.7 SE 6 9 3 5 1013.8 1013.7 0.0
29/06:00pm 31.8 30.1 9.9 26 12.5 SE 9 15 5 8 1013.5 1013.4 0.0
29/05:30pm 32.3 30.4 10.4 26 12.6 SE 11 17 6 9 1013.2 1013.1 0.0
29/05:00pm 32.7 29.7 10.7 26 12.7 SE 17 28 9 15 1013.1 1013.0 0.0
29/04:30pm 32.8 30.6 10.8 26 12.8 SE 13 20 7 11 1013.0 1012.9 0.0
29/04:00pm 33.1 31.1 11.6 27 12.6 SE 13 22 7 12 1013.0 1012.9 0.0
29/03:30pm 32.8 30.0 11.3 27 12.6 E 17 30 9 16 1013.2 1013.1 0.0
29/03:00pm 32.6 30.3 11.7 28 12.3 ENE 15 24 8 13 1013.5 1013.4 0.0
29/02:30pm 32.3 29.5 11.5 28 12.2 ESE 17 24 9 13 1013.9 1013.8 0.0
29/02:00pm 31.9 29.4 12.2 30 11.6 E 17 24 9 13 1014.3 1014.2 0.0
29/01:30pm 31.5 28.8 11.8 30 11.5 ESE 17 37 9 20 1014.8 1014.7 0.0
29/01:00pm 30.8 27.9 12.2 32 10.9 E 19 33 10 18 1015.3 1015.2 0.0
29/12:30pm 30.4 27.2 11.9 32 10.8 ESE 20 33 11 18 1015.9 1015.8 0.0
29/12:00pm 30.4 26.6 12.3 33 10.6 ESE 24 37 13 20 1016.5 1016.4 0.0
29/11:30am 29.5 25.8 11.5 33 10.4 SE 22 35 12 19 1016.8 1016.7 0.0
29/11:00am 28.8 25.1 11.4 34 10.0 ESE 22 33 12 18 1017.4 1017.3 0.0
29/10:30am 27.2 23.3 10.8 36 9.3 ESE 22 35 12 19 1017.6 1017.5 0.0
29/10:00am 26.1 22.7 11.1 39 8.5 ESE 20 30 11 16 1017.9 1017.8 0.0
29/09:30am 25.3 22.5 11.5 42 7.8 SE 17 28 9 15 1018.0 1017.9 0.0
29/09:00am 24.2 21.4 11.5 45 7.1 SE 17 28 9 15 1017.9 1017.8 0.0
29/08:30am 23.0 20.8 10.8 46 6.7 SE 13 22 7 12 1017.5 1017.4 0.0
29/08:00am 21.5 19.5 10.0 48 6.2 SSE 11 17 6 9 1017.3 1017.2 0.0
29/07:30am 19.6 18.3 9.8 53 5.2 SSE 7 9 4 5 1017.0 1016.9 0.0
29/07:00am 18.8 17.4 9.6 55 4.9 SSE 7 9 4 5 1016.8 1016.7 0.0
29/06:30am 18.4 17.4 8.9 54 4.9 SE 4 4 2 2 1016.6 1016.5 0.0
29/06:00am 19.7 18.7 8.7 49 5.7 SE 4 6 2 3 1016.4 1016.3 0.0
29/05:30am 21.0 19.4 8.6 45 6.5 SE 7 9 4 5 1016.1 1016.0 0.0
29/05:00am 21.7 19.3 8.6 43 6.9 SE 11 15 6 8 1015.9 1015.8 0.0
29/04:30am 21.3 19.7 8.9 45 6.6 SE 7 11 4 6 1015.7 1015.6 0.0
29/04:00am 21.8 19.9 9.0 44 6.8 SE 9 13 5 7 1015.6 1015.5 0.0
29/03:30am 21.9 20.3 8.8 43 6.9 SE 7 9 4 5 1015.7 1015.6 0.0
29/03:00am 21.5 20.0 9.1 45 6.6 SE 7 11 4 6 1015.8 1015.7 0.0
29/02:30am 21.0 19.5 8.6 45 6.5 SSE 6 6 3 3 1016.2 1016.1 0.0
29/02:00am 21.8 20.4 9.0 44 6.8 SE 6 7 3 4 1016.4 1016.3 0.0
29/01:30am 22.2 20.7 9.0 43 7.0 SE 7 9 4 5 1016.5 1016.4 0.0
29/01:00am 21.1 19.9 9.7 48 6.1 SE 6 9 3 5 1016.5 1016.4 0.0
29/12:30am 19.3 18.4 10.6 57 4.7 SE 6 7 3 4 1016.6 1016.5 0.0
29/12:00am 18.8 17.9 10.6 59 4.4 SE 6 7 3 4 1016.7 1016.6 0.0
 
Date/Time
CST
Temp
°C
App
Temp
°C
Dew
Point
Rel
Hum
%
Delta-T
°C
Wind Press
QNH
hPa
Press
MSL
hPa
Rain
since 9 am
mm
Dir
 
Spd
km/h
Gust
km/h
Spd
kts
Gust
kts
28/11:30pm 18.9 18.7 10.5 58 4.5 SSE 2 4 1 2 1016.7 1016.6 0.0
28/11:00pm 19.2 19.3 10.2 56 4.8 CALM 0 0 0 0 1016.8 1016.7 0.0
28/10:30pm 19.9 20.0 10.0 53 5.3 CALM 0 0 0 0 1016.9 1016.8 0.0
28/10:00pm 20.6 20.6 9.8 50 5.8 CALM 0 0 0 0 1016.9 1016.8 0.0
28/09:30pm 21.7 21.3 9.6 46 6.5 SSE 2 2 1 1 1016.8 1016.7 0.0
28/09:00pm 22.6 22.1 9.4 43 7.1 SSE 2 4 1 2 1016.7 1016.6 0.0
28/08:30pm 23.5 22.9 9.1 40 7.7 SSE 2 4 1 2 1016.4 1016.3 0.0
28/08:00pm 24.6 23.9 8.5 36 8.6 ESE 2 2 1 1 1016.0 1015.9 0.0
28/07:30pm 26.3 25.5 8.3 32 9.7 ESE 2 2 1 1 1015.6 1015.5 0.0
28/07:00pm 28.3 26.7 8.1 28 11.0 ESE 6 9 3 5 1015.1 1015.0 0.0
28/06:30pm 29.8 27.6 7.7 25 12.0 E 9 17 5 9 1014.8 1014.7 0.0
28/06:00pm 31.0 28.9 8.1 24 12.6 E 9 20 5 11 1014.4 1014.3 0.0
28/05:30pm 31.9 28.5 7.5 22 13.4 ESE 15 22 8 12 1014.2 1014.1 0.0
28/05:00pm 32.1 28.6 7.0 21 13.7 ESE 15 26 8 14 1014.0 1013.9 0.0
28/04:30pm 32.3 28.4 7.2 21 13.7 ESE 17 28 9 15 1013.8 1013.7 0.0
28/04:00pm 32.3 28.4 7.2 21 13.7 ESE 17 24 9 13 1013.8 1013.7 0.0
28/03:30pm 32.6 28.4 7.4 21 13.8 SE 19 32 10 17 1014.0 1013.9 0.0
28/03:00pm 31.8 27.0 7.5 22 13.3 SE 22 37 12 20 1014.4 1014.3 0.0
28/02:30pm 32.0 27.6 7.6 22 13.4 ESE 20 32 11 17 1014.9 1014.8 0.0
28/02:00pm 31.5 26.7 7.2 22 13.2 SE 22 35 12 19 1015.2 1015.1 0.0
28/01:30pm 31.5 27.2 7.2 22 13.2 ESE 19 33 10 18 1015.7 1015.6 0.0
28/01:00pm 30.7 25.7 6.6 22 12.9 ESE 22 32 12 17 1016.3 1016.2 0.0
28/12:30pm 30.4 25.9 6.3 22 12.8 SE 19 30 10 16 1016.8 1016.7 0.0
28/12:00pm 29.9 25.4 5.9 22 12.7 SE 19 33 10 18 1017.3 1017.2 0.0
28/11:30am 29.2 24.1 6.0 23 12.2 SE 22 35 12 19 1017.5 1017.4 0.0
28/11:00am 28.0 22.1 5.6 24 11.6 SSE 26 37 14 20 1017.8 1017.7 0.0
28/10:30am 27.4 22.6 5.6 25 11.3 ESE 20 35 11 19 1018.1 1018.0 0.0
28/10:00am 26.1 21.5 6.7 29 10.2 SE 20 32 11 17 1018.2 1018.1 0.0
28/09:30am 25.1 20.5 6.3 30 9.7 SE 20 37 11 20 1018.3 1018.2 0.0
28/09:00am 24.1 19.7 7.3 34 8.8 SE 20 32 11 17 1018.2 1018.1 0.0
28/08:30am 23.1 19.8 8.0 38 7.9 SE 15 26 8 14 1017.9 1017.8 0.0
28/08:00am 21.9 19.5 8.8 43 7.0 SE 11 17 6 9 1017.7 1017.6 0.0
28/07:30am 20.3 18.9 9.5 50 5.7 SE 7 11 4 6 1017.6 1017.5 0.0
28/07:00am 19.3 18.0 10.0 55 5.0 SE 7 11 4 6 1017.4 1017.3 0.0
28/06:30am 19.5 18.5 10.2 55 5.0 SE 6 7 3 4 1017.2 1017.1 0.0
28/06:00am 20.1 19.1 10.2 53 5.3 SE 6 6 3 3 1016.8 1016.7 0.0
28/05:30am 21.2 20.0 10.4 50 5.9 SE 7 9 4 5 1016.7 1016.6 0.0
28/05:00am 21.9 20.7 10.4 48 6.3 SE 7 11 4 6 1016.6 1016.5 0.0
28/04:30am 22.6 21.1 10.7 47 6.6 SE 9 13 5 7 1016.5 1016.4 0.0
28/04:00am 23.2 21.5 11.3 47 6.7 SE 11 15 6 8 1016.4 1016.3 0.0
28/03:30am 22.8 21.8 12.4 52 5.9 SE 9 15 5 8 1016.2 1016.1 0.0
28/03:00am 18.9 20.3 16.3 85 1.6 SE 4 6 2 3 1016.2 1016.1 0.0
28/02:30am 19.2 21.4 16.6 85 1.6 CALM 0 0 0 0 1016.4 1016.3 0.0
28/02:00am 20.1 22.4 17.7 86 1.5 SSE 2 4 1 2 1016.4 1016.3 0.0
28/01:30am 19.9 22.2 16.7 82 1.9 CALM 0 0 0 0 1016.3 1016.2 0.0
28/01:00am 20.3 22.5 16.5 79 2.3 CALM 0 0 0 0 1016.3 1016.2 0.0
28/12:30am 20.5 22.8 16.7 79 2.3 CALM 0 0 0 0 1016.3 1016.2 0.0
28/12:00am 21.1 23.5 16.9 77 2.6 CALM 0 0 0 0 1016.4 1016.3 0.0
 
Date/Time
CST
Temp
°C
App
Temp
°C
Dew
Point
Rel
Hum
%
Delta-T
°C
Wind Press
QNH
hPa
Press
MSL
hPa
Rain
since 9 am
mm
Dir
 
Spd
km/h
Gust
km/h
Spd
kts
Gust
kts
27/11:30pm 21.5 23.9 17.1 76 2.7 CALM 0 2 0 1 1016.4 1016.3 0.0
27/11:00pm 22.7 25.2 17.2 71 3.4 CALM 0 2 0 1 1016.4 1016.3 0.0
27/10:30pm 23.4 25.6 17.4 69 3.7 SSW 2 4 1 2 1016.3 1016.2 0.0
27/10:00pm 24.0 26.7 17.7 68 3.9 CALM 0 0 0 0 1016.1 1016.0 0.0
27/09:30pm 24.6 27.2 17.6 65 4.4 CALM 0 0 0 0 1015.9 1015.8 0.0
27/09:00pm 25.4 28.0 17.6 62 4.9 CALM 0 0 0 0 1015.7 1015.6 0.0
27/08:30pm 26.5 28.3 17.3 57 5.8 ESE 4 6 2 3 1015.4 1015.3 0.0
27/08:00pm 27.7 29.5 17.5 53 6.4 ESE 4 6 2 3 1015.0 1014.9 0.0
27/07:30pm 28.4 30.3 17.6 52 6.8 ENE 4 7 2 4 1014.6 1014.5 0.0
27/07:00pm 29.4 31.3 17.6 49 7.5 ENE 4 6 2 3 1014.1 1014.0 0.0
27/06:30pm 30.6 32.0 17.7 46 8.2 NE 7 11 4 6 1013.8 1013.7 0.0
27/06:00pm 31.6 32.5 17.5 43 9.0 NE 9 17 5 9 1013.4 1013.3 0.0
27/05:30pm 32.8 33.5 17.0 38 10.1 ENE 9 13 5 7 1013.0 1012.9 0.0
27/05:00pm 32.6 33.2 16.8 38 10.0 ENE 9 17 5 9 1012.9 1012.8 0.0
27/04:30pm 33.0 33.6 16.8 38 10.3 ENE 9 17 5 9 1012.7 1012.6 0.0
27/04:00pm 34.5 32.9 13.9 29 12.6 E 15 26 8 14 1012.6 1012.5 0.0
27/03:30pm 34.7 32.7 14.0 28 12.7 E 17 32 9 17 1012.7 1012.6 0.0
27/03:00pm 34.2 31.7 13.6 29 12.5 E 19 26 10 14 1012.9 1012.8 0.0
27/02:30pm 34.6 32.6 14.0 29 12.6 ESE 17 24 9 13 1013.3 1013.2 0.0
27/02:00pm 34.8 32.7 13.6 28 12.9 ESE 17 24 9 13 1013.6 1013.5 0.0
27/01:30pm 34.4 32.0 13.8 29 12.6 E 19 32 10 17 1014.1 1014.0 0.0
27/01:00pm 34.5 32.1 14.4 30 12.4 E 20 32 11 17 1014.6 1014.5 0.0
27/12:30pm 33.4 30.8 14.9 32 11.4 E 22 44 12 24 1015.1 1015.0 0.0
27/12:00pm 33.1 30.4 15.6 35 10.9 E 24 41 13 22 1016.0 1015.9 0.0
27/11:30am 31.8 30.4 16.9 40 9.4 E 20 32 11 17 1016.6 1016.5 0.0
27/11:00am 31.4 31.2 17.7 44 8.8 SE 15 26 8 14 1017.0 1016.9 0.0
27/10:30am 30.5 31.5 19.5 51 7.2 SE 13 20 7 11 1017.4 1017.3 0.0
27/10:00am 28.7 30.7 19.9 59 5.8 SSE 9 13 5 7 1017.7 1017.6 0.0
27/09:30am 27.4 29.8 20.0 64 4.8 S 7 11 4 6 1018.0 1017.9 0.0
27/09:00am 26.0 28.6 20.1 70 3.8 S 6 9 3 5 1017.9 1017.8 0.0
27/08:30am 24.7 28.6 21.2 81 2.3 S 2 6 1 3 1017.5 1017.4 0.0
27/08:00am 23.8 27.7 21.1 85 1.8 SE 2 4 1 2 1017.1 1017.0 0.0

Other Formats:

Comma delimited format used in spreadsheet applications
http://www.bom.gov.au/fwo/IDD60801/IDD60801.94105.axf

JavaScript Object Notation format (JSON) in row-major order
http://www.bom.gov.au/fwo/IDD60801/IDD60801.94105.json